createdAt,value
2023-10-20T00:01:57.070Z,97948.81
2023-10-20T00:04:25.372Z,97933.44
2023-10-20T00:06:52.115Z,97971.19
2023-10-20T00:09:19.391Z,97949.28
2023-10-20T00:11:46.466Z,97957.44
2023-10-20T00:14:13.250Z,97966.16
2023-10-20T00:16:40.339Z,97947.19
2023-10-20T00:19:10.042Z,97933.69
2023-10-20T00:21:36.923Z,97945.34
2023-10-20T00:24:03.946Z,97920.09
2023-10-20T00:26:30.714Z,97932.16
2023-10-20T00:28:57.590Z,97952.59
2023-10-20T00:31:24.901Z,97901.50
2023-10-20T00:33:51.763Z,97938.63
2023-10-20T00:36:18.705Z,97951.09
2023-10-20T00:38:45.566Z,97967.97
2023-10-20T00:41:12.552Z,97924.50
2023-10-20T00:43:39.744Z,97977.69
2023-10-20T00:46:11.559Z,97961.19
2023-10-20T00:48:39.117Z,97937.63
2023-10-20T00:51:08.830Z,97973.91
2023-10-20T00:53:36.924Z,97946.81
2023-10-20T00:56:07.637Z,97957.47
2023-10-20T00:58:34.705Z,97941.34
2023-10-20T01:01:05.287Z,97923.19
2023-10-20T01:03:34.899Z,97907.81
2023-10-20T01:06:05.531Z,97958.69
2023-10-20T01:08:32.311Z,97933.91
2023-10-20T01:10:59.080Z,97958.31
2023-10-20T01:13:26.438Z,97900.31
2023-10-20T01:15:53.319Z,97927.19
2023-10-20T01:18:20.330Z,97902.38
2023-10-20T01:20:47.091Z,97932.34
2023-10-20T01:23:13.921Z,97934.28
2023-10-20T01:25:40.773Z,97948.09
2023-10-20T01:28:07.472Z,97906.34
2023-10-20T01:30:34.304Z,97902.34
2023-10-20T01:33:01.154Z,97919.59
2023-10-20T01:35:27.973Z,97929.03
2023-10-20T01:37:54.702Z,97918.16
2023-10-20T01:40:23.077Z,97915.72
2023-10-20T01:42:49.814Z,97904.88
2023-10-20T01:45:16.608Z,97910.47
2023-10-20T01:47:43.377Z,97922.72
2023-10-20T01:50:10.492Z,97908.31
2023-10-20T01:52:37.269Z,97902.47
2023-10-20T01:55:04.447Z,97908.94
2023-10-20T01:57:31.146Z,97908.50
2023-10-20T01:59:57.835Z,97958.13
2023-10-20T02:02:24.656Z,97908.03
2023-10-20T02:04:51.482Z,97924.13
2023-10-20T02:07:18.905Z,97913.34
2023-10-20T02:09:45.851Z,97916.34
2023-10-20T02:12:12.598Z,97922.78
2023-10-20T02:14:39.343Z,97917.56
2023-10-20T02:17:06.652Z,97925.34
2023-10-20T02:19:33.461Z,97924.28
2023-10-20T02:22:02.996Z,97905.69
2023-10-20T02:24:31.141Z,97920.84
2023-10-20T02:26:58.973Z,97907.09
2023-10-20T02:29:25.934Z,97898.81
2023-10-20T02:31:52.854Z,97889.00
2023-10-20T02:34:19.648Z,97920.09
2023-10-20T02:36:49.181Z,97936.31
2023-10-20T02:39:16.152Z,97907.63
2023-10-20T02:41:42.943Z,97894.00
2023-10-20T02:44:09.755Z,97911.91
2023-10-20T02:46:36.470Z,97905.75
2023-10-20T02:49:03.223Z,97913.63
2023-10-20T02:51:29.882Z,97893.44
2023-10-20T02:53:56.571Z,97859.63
2023-10-20T02:56:24.847Z,97898.00
2023-10-20T02:58:51.670Z,97894.53
2023-10-20T03:01:20.030Z,97915.56
2023-10-20T03:03:47.302Z,97884.72
2023-10-20T03:06:14.558Z,97890.47
2023-10-20T03:08:41.773Z,97898.38
2023-10-20T03:11:10.324Z,97924.69
2023-10-20T03:13:39.632Z,97895.50
2023-10-20T03:16:07.119Z,97878.97
2023-10-20T03:18:33.822Z,97888.31
2023-10-20T03:21:02.914Z,97870.41
2023-10-20T03:23:30.325Z,97877.72
2023-10-20T03:25:57.127Z,97893.72
2023-10-20T03:28:24.209Z,97887.28
2023-10-20T03:30:52.816Z,97914.84
2023-10-20T03:33:19.979Z,97886.28
2023-10-20T03:35:47.433Z,97844.09
2023-10-20T03:38:15.756Z,97861.16
2023-10-20T03:40:43.498Z,97914.72
2023-10-20T03:43:11.832Z,97907.94
2023-10-20T03:45:43.449Z,97879.06
2023-10-20T03:48:11.039Z,97876.19
2023-10-20T03:50:43.326Z,97873.25
2023-10-20T03:53:13.393Z,97872.41
2023-10-20T03:55:40.163Z,97866.97
2023-10-20T03:58:06.922Z,97874.47
2023-10-20T04:00:38.032Z,97865.16
2023-10-20T04:03:04.936Z,97868.28
2023-10-20T04:05:32.934Z,97866.88
2023-10-20T04:07:59.865Z,97844.75
2023-10-20T04:10:26.738Z,97871.47
2023-10-20T04:12:53.661Z,97868.94
2023-10-20T04:15:27.467Z,97871.47
2023-10-20T04:17:54.561Z,97874.53
2023-10-20T04:20:22.716Z,97901.81
2023-10-20T04:22:52.787Z,97844.88
2023-10-20T04:25:21.245Z,97845.91
2023-10-20T04:28:07.161Z,97872.53
2023-10-20T04:30:55.171Z,97908.03
2023-10-20T04:33:40.824Z,97892.31
2023-10-20T04:36:26.583Z,97878.41
2023-10-20T04:39:11.771Z,97889.53
2023-10-20T04:41:57.026Z,97894.47
2023-10-20T04:44:24.731Z,97891.06
2023-10-20T04:46:53.873Z,97923.25
2023-10-20T04:49:55.515Z,97866.47
2023-10-20T04:52:40.565Z,97908.06
2023-10-20T04:55:13.183Z,97913.56
2023-10-20T04:57:45.733Z,97896.09
2023-10-20T05:00:13.934Z,97896.75
2023-10-20T05:02:51.870Z,97930.78
2023-10-20T05:05:42.886Z,97930.19
2023-10-20T05:08:12.468Z,97897.25
2023-10-20T05:10:42.027Z,97934.00
2023-10-20T05:13:09.929Z,97900.59
2023-10-20T05:15:44.732Z,97913.81
2023-10-20T05:18:16.211Z,97912.63
2023-10-20T05:20:44.346Z,97923.84
2023-10-20T05:23:16.282Z,97893.16
2023-10-20T05:25:49.818Z,97893.44
2023-10-20T05:28:17.894Z,97925.78
2023-10-20T05:30:46.357Z,97933.16
2023-10-20T05:33:14.125Z,97937.75
2023-10-20T05:35:42.072Z,97906.31
2023-10-20T05:38:09.511Z,97900.50
2023-10-20T05:40:37.636Z,97906.06
2023-10-20T05:43:06.905Z,97893.84
2023-10-20T05:45:41.607Z,97874.50
2023-10-20T05:48:09.743Z,97873.50
2023-10-20T05:50:39.447Z,97892.91
2023-10-20T05:53:07.194Z,97901.53
2023-10-20T05:55:34.510Z,97912.00
2023-10-20T05:58:01.954Z,97929.97
2023-10-20T06:00:28.844Z,97897.50
2023-10-20T06:02:56.509Z,97900.00
2023-10-20T06:05:23.702Z,97872.16
2023-10-20T06:07:50.649Z,97861.72
2023-10-20T06:10:24.416Z,97883.41
2023-10-20T06:12:52.404Z,97927.59
2023-10-20T06:15:21.063Z,97927.16
2023-10-20T06:17:49.380Z,97922.66
2023-10-20T06:20:16.635Z,97929.72
2023-10-20T06:22:43.789Z,97914.31
2023-10-20T06:25:13.620Z,97885.56
2023-10-20T06:27:41.961Z,97917.84
2023-10-20T06:30:15.847Z,97896.84
2023-10-20T06:32:46.515Z,97920.78
2023-10-20T06:35:14.535Z,97916.81
2023-10-20T06:38:02.359Z,97934.31
2023-10-20T06:40:29.105Z,97929.09
2023-10-20T06:42:55.825Z,97905.59
2023-10-20T06:45:22.542Z,97896.19
2023-10-20T06:47:49.414Z,97915.38
2023-10-20T06:50:16.192Z,97916.81
2023-10-20T06:52:43.038Z,97907.00
2023-10-20T06:55:42.649Z,97915.13
2023-10-20T06:57:58.784Z,97895.72
2023-10-20T07:00:25.538Z,97900.66
2023-10-20T07:02:52.280Z,97936.63
2023-10-20T07:05:21.711Z,97910.38
2023-10-20T07:07:49.921Z,97928.25
2023-10-20T07:10:19.312Z,97921.66
2023-10-20T07:12:46.058Z,97925.53
2023-10-20T07:15:14.263Z,97893.03
2023-10-20T07:17:41.006Z,97939.19
2023-10-20T07:20:08.871Z,97941.44
2023-10-20T07:22:35.691Z,97936.69
2023-10-20T07:25:02.560Z,97938.88
2023-10-20T07:27:29.399Z,97937.28
2023-10-20T07:29:56.376Z,97939.66
2023-10-20T07:32:23.395Z,97931.28
2023-10-20T07:34:52.517Z,97927.00
2023-10-20T07:37:19.589Z,97910.59
2023-10-20T07:39:46.334Z,97929.16
2023-10-20T07:42:13.137Z,97926.25
2023-10-20T07:44:41.462Z,97906.25
2023-10-20T07:47:08.242Z,97939.91
2023-10-20T07:49:34.955Z,97907.81
2023-10-20T07:52:03.362Z,97917.47
2023-10-20T07:54:31.281Z,97921.28
2023-10-20T07:56:59.900Z,97928.44
2023-10-20T07:59:27.095Z,97925.47
2023-10-20T08:01:53.798Z,97929.84
2023-10-20T08:04:20.831Z,97883.13
2023-10-20T08:06:49.405Z,97892.44
2023-10-20T08:09:16.332Z,97901.22
2023-10-20T08:11:44.452Z,97912.00
2023-10-20T08:14:11.349Z,97925.09
2023-10-20T08:16:38.118Z,97931.91
2023-10-20T08:19:04.965Z,97933.28
2023-10-20T08:21:31.965Z,97905.97
2023-10-20T08:24:01.477Z,97931.06
2023-10-20T08:26:28.349Z,97913.03
2023-10-20T08:28:55.119Z,97916.88
2023-10-20T08:31:23.400Z,97925.47
2023-10-20T08:33:53.082Z,97896.50
2023-10-20T08:36:22.858Z,97896.50
2023-10-20T08:38:53.662Z,97896.75
2023-10-20T08:41:24.044Z,97900.94
2023-10-20T08:43:51.348Z,97928.47
2023-10-20T08:46:19.161Z,97884.22
2023-10-20T08:48:47.677Z,97904.97
2023-10-20T08:51:17.707Z,97919.03
2023-10-20T08:53:46.289Z,97906.69
2023-10-20T08:56:13.884Z,97937.13
2023-10-20T08:58:40.966Z,97916.81
2023-10-20T09:01:07.818Z,97909.56
2023-10-20T09:04:02.321Z,97935.75
2023-10-20T09:06:29.212Z,97908.13
2023-10-20T09:08:58.666Z,97923.69
2023-10-20T09:11:34.596Z,97904.88
2023-10-20T09:14:02.421Z,97928.88
2023-10-20T09:16:29.414Z,97954.75
2023-10-20T09:18:56.394Z,97920.25
2023-10-20T09:21:29.995Z,97923.22
2023-10-20T09:23:57.957Z,97913.97
2023-10-20T09:26:29.262Z,97911.34
2023-10-20T09:28:58.031Z,97908.78
2023-10-20T09:31:28.678Z,97903.56
2023-10-20T09:33:56.063Z,97922.03
2023-10-20T09:36:26.412Z,97915.06
2023-10-20T09:38:55.609Z,97928.28
2023-10-20T09:41:30.719Z,97911.97
2023-10-20T09:44:10.121Z,97905.41
2023-10-20T09:46:57.547Z,97929.84
2023-10-20T09:49:27.801Z,97932.75
2023-10-20T09:51:56.842Z,97933.63
2023-10-20T09:54:30.862Z,97899.69
2023-10-20T09:57:00.875Z,97902.50
2023-10-20T09:59:29.163Z,97906.28
2023-10-20T10:01:57.841Z,97923.69
2023-10-20T10:04:30.504Z,97889.81
2023-10-20T10:07:05.176Z,97921.81
2023-10-20T10:09:50.725Z,97889.88
2023-10-20T10:12:21.972Z,97911.59
2023-10-20T10:14:59.512Z,97920.63
2023-10-20T10:17:29.899Z,97879.72
2023-10-20T10:19:57.816Z,97920.44
2023-10-20T10:22:29.513Z,97880.56
2023-10-20T10:25:02.430Z,97918.22
2023-10-20T10:27:31.057Z,97891.34
2023-10-20T10:30:01.497Z,97860.13
2023-10-20T10:32:33.890Z,97864.44
2023-10-20T10:35:02.984Z,97895.81
2023-10-20T10:37:37.236Z,97900.09
2023-10-20T10:40:15.573Z,97892.25
2023-10-20T10:42:47.610Z,97887.63
2023-10-20T10:45:17.825Z,97868.09
2023-10-20T10:47:45.075Z,97841.66
2023-10-20T10:50:11.874Z,97848.28
2023-10-20T10:52:38.690Z,97874.69
2023-10-20T10:55:05.684Z,97846.06
2023-10-20T10:57:32.549Z,97827.09
2023-10-20T11:00:01.901Z,97835.34
2023-10-20T11:02:29.595Z,97831.69
2023-10-20T11:04:56.505Z,97847.06
2023-10-20T11:07:23.865Z,97839.81
2023-10-20T11:09:52.581Z,97835.63
2023-10-20T11:12:21.800Z,97826.38
2023-10-20T11:14:48.826Z,97852.66
2023-10-20T11:17:16.336Z,97851.78
2023-10-20T11:19:43.975Z,97844.19
2023-10-20T11:22:19.879Z,97852.75
2023-10-20T11:24:53.999Z,97883.91
2023-10-20T11:27:21.156Z,97853.13
2023-10-20T11:29:58.553Z,97856.81
2023-10-20T11:32:27.243Z,97871.38
2023-10-20T11:34:54.323Z,97858.38
2023-10-20T11:37:21.082Z,97860.34
2023-10-20T11:39:48.335Z,97856.66
2023-10-20T11:42:15.275Z,97868.28
2023-10-20T11:44:42.191Z,97868.66
2023-10-20T11:47:09.006Z,97847.81
2023-10-20T11:49:35.757Z,97844.06
2023-10-20T11:52:03.822Z,97860.50
2023-10-20T11:54:33.463Z,97854.06
2023-10-20T11:57:00.395Z,97853.50
2023-10-20T11:59:27.244Z,97847.78
2023-10-20T12:01:54.029Z,97877.06
2023-10-20T12:04:20.943Z,97863.56
2023-10-20T12:06:48.005Z,97852.78
2023-10-20T12:09:17.962Z,97849.91
2023-10-20T12:11:46.620Z,97861.41
2023-10-20T12:14:15.419Z,97858.25
2023-10-20T12:16:43.643Z,97869.63
2023-10-20T12:19:10.523Z,97832.94
2023-10-20T12:21:37.254Z,97852.91
2023-10-20T12:24:04.568Z,97844.81
2023-10-20T12:26:31.343Z,97853.66
2023-10-20T12:28:58.328Z,97863.91
2023-10-20T12:31:25.981Z,97838.53
2023-10-20T12:33:53.181Z,97829.97
2023-10-20T12:36:19.962Z,97833.97
2023-10-20T12:38:47.328Z,97828.97
2023-10-20T12:41:15.127Z,97857.72
2023-10-20T12:43:43.105Z,97843.19
2023-10-20T12:46:12.935Z,97829.03
2023-10-20T12:48:40.711Z,97822.88
2023-10-20T12:51:12.090Z,97861.22
2023-10-20T12:53:39.503Z,97853.88
2023-10-20T12:56:07.166Z,97820.63
2023-10-20T12:58:36.745Z,97846.78
2023-10-20T13:01:03.755Z,97849.97
2023-10-20T13:03:30.909Z,97833.34
2023-10-20T13:05:58.321Z,97838.88
2023-10-20T13:08:27.956Z,97818.56
2023-10-20T13:10:54.619Z,97808.81
2023-10-20T13:13:21.594Z,97792.69
2023-10-20T13:15:48.344Z,97814.66
2023-10-20T13:18:17.098Z,97777.16
2023-10-20T13:20:46.766Z,97791.19
2023-10-20T13:23:14.061Z,97783.59
2023-10-20T13:25:40.802Z,97774.41
2023-10-20T13:28:07.897Z,97762.78
2023-10-20T13:30:35.033Z,97807.97
2023-10-20T13:33:05.660Z,97805.72
2023-10-20T13:35:37.998Z,97810.69
2023-10-20T13:38:17.643Z,97787.09
2023-10-20T13:40:44.633Z,97782.31
2023-10-20T13:43:11.276Z,97786.88
2023-10-20T13:45:39.117Z,97761.16
2023-10-20T13:48:07.291Z,97808.56
2023-10-20T13:50:34.478Z,97781.28
2023-10-20T13:53:01.293Z,97788.47
2023-10-20T13:55:29.432Z,97775.81
2023-10-20T13:57:56.353Z,97762.53
2023-10-20T14:00:24.020Z,97771.72
2023-10-20T14:02:51.635Z,97795.59
2023-10-20T14:05:21.472Z,97776.19
2023-10-20T14:07:49.348Z,97770.47
2023-10-20T14:10:16.437Z,97779.91
2023-10-20T14:12:43.266Z,97776.44
2023-10-20T14:15:10.611Z,97764.66
2023-10-20T14:17:37.530Z,97788.03
2023-10-20T14:20:04.850Z,97770.22
2023-10-20T14:22:31.712Z,97776.25
2023-10-20T14:24:58.514Z,97775.50
2023-10-20T14:27:25.190Z,97795.88
2023-10-20T14:29:51.883Z,97785.41
2023-10-20T14:32:18.799Z,97783.28
2023-10-20T14:34:45.511Z,97796.47
2023-10-20T14:37:12.279Z,97807.50
2023-10-20T14:39:40.764Z,97798.69
2023-10-20T14:42:07.515Z,97772.59
2023-10-20T14:44:34.223Z,97798.19
2023-10-20T14:47:00.949Z,97820.75
2023-10-20T14:49:27.816Z,97796.22
2023-10-20T14:51:54.470Z,97792.13
2023-10-20T14:54:21.307Z,97794.84
2023-10-20T14:56:49.630Z,97774.47
2023-10-20T14:59:16.454Z,97806.38
2023-10-20T15:01:43.245Z,97800.28
2023-10-20T15:04:22.220Z,97804.06
2023-10-20T15:06:55.491Z,97798.00
2023-10-20T15:09:22.376Z,97788.91
2023-10-20T15:11:49.161Z,97784.69
2023-10-20T15:14:17.467Z,97769.69
2023-10-20T15:16:44.139Z,97795.28
2023-10-20T15:19:10.924Z,97797.09
2023-10-20T15:21:37.671Z,97807.16
2023-10-20T15:24:05.475Z,97792.13
2023-10-20T15:26:32.285Z,97805.00
2023-10-20T15:28:58.994Z,97824.97
2023-10-20T15:31:25.744Z,97825.16
2023-10-20T15:33:52.872Z,97812.94
2023-10-20T15:36:19.777Z,97800.13
2023-10-20T15:38:49.704Z,97813.88
2023-10-20T15:41:19.679Z,97828.56
2023-10-20T15:43:46.759Z,97810.75
2023-10-20T15:46:14.021Z,97827.19
2023-10-20T15:48:41.142Z,97829.63
2023-10-20T15:51:09.228Z,97806.53
2023-10-20T15:53:36.394Z,97835.16
2023-10-20T15:56:03.272Z,97846.78
2023-10-20T15:58:30.082Z,97822.78
2023-10-20T16:01:01.307Z,97841.34
2023-10-20T16:03:29.774Z,97841.94
2023-10-20T16:05:56.781Z,97831.34
2023-10-20T16:08:23.962Z,97868.41
2023-10-20T16:10:50.727Z,97845.97
2023-10-20T16:13:17.389Z,97847.75
2023-10-20T16:15:44.329Z,97855.69
2023-10-20T16:18:11.924Z,97846.22
2023-10-20T16:20:39.585Z,97849.16
2023-10-20T16:23:06.425Z,97859.56
2023-10-20T16:25:33.231Z,97827.75
2023-10-20T16:27:59.994Z,97820.19
2023-10-20T16:30:26.803Z,97858.47
2023-10-20T16:32:53.545Z,97850.03
2023-10-20T16:35:20.331Z,97842.66
2023-10-20T16:37:47.111Z,97868.19
2023-10-20T16:40:15.766Z,97894.94
2023-10-20T16:42:42.508Z,97842.94
2023-10-20T16:45:11.402Z,97868.31
2023-10-20T16:47:39.621Z,97866.59
2023-10-20T16:50:07.347Z,97886.44
2023-10-20T16:52:35.702Z,97862.88
2023-10-20T16:55:02.537Z,97864.09
2023-10-20T16:57:29.433Z,97875.56
2023-10-20T16:59:56.170Z,97880.31
2023-10-20T17:02:23.033Z,97884.38
2023-10-20T17:04:49.719Z,97903.78
2023-10-20T17:07:17.022Z,97891.97
2023-10-20T17:12:33.137Z,97874.56
2023-10-20T17:15:01.290Z,97848.66
2023-10-20T17:17:28.167Z,97864.03
2023-10-20T17:19:55.674Z,97858.47
2023-10-20T17:22:22.530Z,97863.59
2023-10-20T17:24:49.242Z,97867.88
2023-10-20T17:27:16.116Z,97902.75
2023-10-20T17:29:43.119Z,97863.63
2023-10-20T17:32:12.614Z,97918.19
2023-10-20T17:34:40.590Z,97890.34
2023-10-20T17:37:07.385Z,97899.91
2023-10-20T17:39:34.365Z,97913.47
2023-10-20T17:42:01.292Z,97894.94
2023-10-20T17:44:29.309Z,97903.00
2023-10-20T17:46:56.181Z,97897.44
2023-10-20T17:49:23.293Z,97957.41
2023-10-20T17:51:51.111Z,97925.25
2023-10-20T17:54:17.885Z,97955.63
2023-10-20T17:56:45.065Z,97925.16
2023-10-20T17:59:12.409Z,97906.56
2023-10-20T18:01:39.239Z,97935.13
2023-10-20T18:04:06.568Z,97942.94
2023-10-20T18:06:36.117Z,97925.38
2023-10-20T18:09:02.996Z,97947.16
2023-10-20T18:11:29.727Z,97934.50
2023-10-20T18:13:57.305Z,97952.06
2023-10-20T18:16:24.372Z,97934.44
2023-10-20T18:18:51.729Z,97954.38
2023-10-20T18:21:25.525Z,97944.22
2023-10-20T18:23:54.328Z,97952.63
2023-10-20T18:26:21.372Z,97947.75
2023-10-20T18:28:51.282Z,97976.00
2023-10-20T18:31:18.248Z,97961.53
2023-10-20T18:33:48.207Z,97979.34
2023-10-20T18:36:21.109Z,97967.13
2023-10-20T18:38:49.318Z,97942.81
2023-10-20T18:41:20.189Z,97985.63
2023-10-20T18:43:47.772Z,97976.50
2023-10-20T18:46:14.929Z,98021.34
2023-10-20T18:48:42.391Z,97972.31
2023-10-20T18:51:13.417Z,97996.41
2023-10-20T18:53:42.514Z,97976.47
2023-10-20T18:56:10.248Z,98005.19
2023-10-20T18:58:39.107Z,97972.09
2023-10-20T19:01:05.903Z,98018.22
2023-10-20T19:03:34.874Z,97991.06
2023-10-20T19:06:04.403Z,98008.75
2023-10-20T19:08:31.255Z,97988.56
2023-10-20T19:11:01.097Z,98015.06
2023-10-20T19:13:27.751Z,97974.44
2023-10-20T19:15:57.115Z,98002.53
2023-10-20T19:18:24.129Z,98010.97
2023-10-20T19:21:03.039Z,98034.00
2023-10-20T19:23:30.193Z,98035.56
2023-10-20T19:26:01.903Z,98035.44
2023-10-20T19:33:56.841Z,98037.28
2023-10-20T19:36:23.647Z,98025.38
2023-10-20T19:38:50.398Z,98041.28
2023-10-20T19:41:18.508Z,98031.66
2023-10-20T19:43:45.600Z,98008.47
2023-10-20T19:46:14.771Z,98023.16
2023-10-20T19:48:41.743Z,98038.47
2023-10-20T19:51:08.634Z,98022.91
2023-10-20T19:53:35.387Z,98063.84
2023-10-20T19:56:02.182Z,98051.97
2023-10-20T19:58:28.993Z,98058.84
2023-10-20T20:01:01.724Z,98067.97
2023-10-20T20:03:28.642Z,98033.13
2023-10-20T20:05:55.574Z,98054.91
2023-10-20T20:08:22.340Z,98057.56
2023-10-20T20:10:49.003Z,98054.56
2023-10-20T20:13:15.721Z,98065.88
2023-10-20T20:15:42.475Z,98060.06
2023-10-20T20:18:09.307Z,98071.69
2023-10-20T20:20:36.106Z,98065.75
2023-10-20T20:23:02.814Z,98075.56
2023-10-20T20:25:29.478Z,98079.81
2023-10-20T20:27:56.169Z,98068.16
2023-10-20T20:30:22.903Z,98051.28
2023-10-20T20:32:49.665Z,98093.13
2023-10-20T20:35:16.470Z,98036.03
2023-10-20T20:37:43.259Z,98051.69
2023-10-20T20:40:10.229Z,98053.94
2023-10-20T20:42:37.007Z,98070.91
2023-10-20T20:45:04.494Z,98062.34
2023-10-20T20:47:31.579Z,98077.84
2023-10-20T20:49:59.450Z,98065.59
2023-10-20T20:52:26.137Z,98100.84
2023-10-20T20:54:54.413Z,98031.53
2023-10-20T20:57:22.634Z,98082.53
2023-10-20T20:59:50.023Z,98046.31
2023-10-20T21:02:16.819Z,98075.25
2023-10-20T21:04:43.995Z,98057.59
2023-10-20T21:07:10.844Z,98060.22
2023-10-20T21:09:37.540Z,98045.03
2023-10-20T21:12:05.549Z,98057.13
2023-10-20T21:14:32.260Z,98061.72
2023-10-20T21:16:58.970Z,98055.44
2023-10-20T21:19:26.121Z,98074.47
2023-10-20T21:21:52.872Z,98060.06
2023-10-20T21:24:23.407Z,98073.53
2023-10-20T21:26:54.681Z,98052.13
2023-10-20T21:29:22.171Z,98072.13
2023-10-20T21:31:50.700Z,98097.97
2023-10-20T21:34:17.450Z,98062.56
2023-10-20T21:36:44.140Z,98094.50
2023-10-20T21:39:14.117Z,98090.72
2023-10-20T21:41:40.964Z,98066.41
2023-10-20T21:44:08.195Z,98093.06
2023-10-20T21:46:37.464Z,98076.69
2023-10-20T21:49:04.361Z,98077.16
2023-10-20T21:51:31.109Z,98103.41
2023-10-20T21:53:57.859Z,98084.97
2023-10-20T21:56:24.920Z,98054.31
2023-10-20T21:58:51.672Z,98087.81
2023-10-20T22:01:18.988Z,98071.66
2023-10-20T22:03:46.996Z,98035.00
2023-10-20T22:06:13.966Z,98069.59
2023-10-20T22:08:40.719Z,98057.16
2023-10-20T22:11:07.437Z,98055.38
2023-10-20T22:13:34.127Z,98061.34
2023-10-20T22:16:00.795Z,98050.88
2023-10-20T22:18:27.616Z,98061.72
2023-10-20T22:20:54.490Z,98062.47
2023-10-20T22:23:23.462Z,98054.88
2023-10-20T22:25:50.488Z,98048.50
2023-10-20T22:28:17.168Z,98065.84
2023-10-20T22:30:44.008Z,98064.56
2023-10-20T22:33:10.916Z,98050.56
2023-10-20T22:35:37.776Z,98055.09
2023-10-20T22:38:04.497Z,98077.88
2023-10-20T22:40:31.202Z,98065.72
2023-10-20T22:42:57.955Z,98056.94
2023-10-20T22:45:24.733Z,98030.66
2023-10-20T22:47:51.527Z,98065.84
2023-10-20T22:50:21.375Z,98049.06
2023-10-20T22:52:48.951Z,98076.09
2023-10-20T22:55:15.736Z,98044.63
2023-10-20T22:57:45.674Z,98076.06
2023-10-20T23:00:13.137Z,98058.38
2023-10-20T23:02:41.216Z,98061.94
2023-10-20T23:05:09.371Z,98079.84
2023-10-20T23:07:36.405Z,98034.97
2023-10-20T23:10:04.914Z,98060.38
2023-10-20T23:12:35.807Z,98070.25
2023-10-20T23:15:02.982Z,98067.31
2023-10-20T23:17:29.697Z,98076.50
2023-10-20T23:19:57.935Z,98069.91
2023-10-20T23:22:26.314Z,98066.81
2023-10-20T23:24:54.251Z,98047.41
2023-10-20T23:27:21.030Z,98052.84
2023-10-20T23:29:47.929Z,98079.69
2023-10-20T23:32:14.695Z,98088.09
2023-10-20T23:34:41.347Z,98071.41
2023-10-20T23:37:08.964Z,98087.06
2023-10-20T23:39:36.955Z,98061.88
2023-10-20T23:42:05.274Z,98097.09
2023-10-20T23:44:32.633Z,98081.06
2023-10-20T23:47:00.692Z,98066.31
2023-10-20T23:49:27.836Z,98070.41
2023-10-20T23:51:55.016Z,98060.06
2023-10-20T23:54:21.834Z,98066.97
2023-10-20T23:56:48.624Z,98078.66
2023-10-20T23:59:15.352Z,98059.25
